sensor_id;sensor_type;location;lat;lon;timestamp;temperature;humidity
11540;DHT22;5826;54.756;9.192;2023-04-15T00:01:26;9.30;99.90
11540;DHT22;5826;54.756;9.192;2023-04-15T00:03:53;9.30;99.90
11540;DHT22;5826;54.756;9.192;2023-04-15T00:06:20;9.20;99.90
11540;DHT22;5826;54.756;9.192;2023-04-15T00:08:46;9.00;99.90
11540;DHT22;5826;54.756;9.192;2023-04-15T00:11:12;9.10;99.90
11540;DHT22;5826;54.756;9.192;2023-04-15T00:13:38;9.00;99.90
11540;DHT22;5826;54.756;9.192;2023-04-15T00:16:05;9.00;99.90
11540;DHT22;5826;54.756;9.192;2023-04-15T00:18:32;9.10;99.90
11540;DHT22;5826;54.756;9.192;2023-04-15T00:20:58;9.10;99.90
11540;DHT22;5826;54.756;9.192;2023-04-15T00:23:24;9.10;99.90
11540;DHT22;5826;54.756;9.192;2023-04-15T00:25:50;9.10;99.90
11540;DHT22;5826;54.756;9.192;2023-04-15T00:28:16;9.00;99.90
11540;DHT22;5826;54.756;9.192;2023-04-15T00:30:42;9.00;99.90
11540;DHT22;5826;54.756;9.192;2023-04-15T00:33:07;9.00;99.90
11540;DHT22;5826;54.756;9.192;2023-04-15T00:35:33;9.10;99.90
11540;DHT22;5826;54.756;9.192;2023-04-15T00:38:00;9.10;99.90
11540;DHT22;5826;54.756;9.192;2023-04-15T00:40:25;9.20;99.90
11540;DHT22;5826;54.756;9.192;2023-04-15T00:42:52;9.20;99.90
11540;DHT22;5826;54.756;9.192;2023-04-15T00:45:17;9.20;99.90
11540;DHT22;5826;54.756;9.192;2023-04-15T00:47:43;9.20;99.90
11540;DHT22;5826;54.756;9.192;2023-04-15T00:50:10;9.20;99.90
11540;DHT22;5826;54.756;9.192;2023-04-15T00:52:37;9.20;99.90
11540;DHT22;5826;54.756;9.192;2023-04-15T00:55:03;9.20;99.90
11540;DHT22;5826;54.756;9.192;2023-04-15T00:57:30;9.10;99.90
11540;DHT22;5826;54.756;9.192;2023-04-15T00:59:56;9.10;99.90
11540;DHT22;5826;54.756;9.192;2023-04-15T01:02:22;9.10;99.90
11540;DHT22;5826;54.756;9.192;2023-04-15T01:04:48;9.10;99.90
11540;DHT22;5826;54.756;9.192;2023-04-15T01:07:14;9.10;99.90
11540;DHT22;5826;54.756;9.192;2023-04-15T01:09:40;9.10;99.90
11540;DHT22;5826;54.756;9.192;2023-04-15T01:12:06;9.00;99.90
11540;DHT22;5826;54.756;9.192;2023-04-15T01:14:34;9.00;99.90
11540;DHT22;5826;54.756;9.192;2023-04-15T01:17:00;9.00;99.90
11540;DHT22;5826;54.756;9.192;2023-04-15T01:19:26;9.00;99.90
11540;DHT22;5826;54.756;9.192;2023-04-15T01:21:53;9.00;99.90
11540;DHT22;5826;54.756;9.192;2023-04-15T01:24:18;9.00;99.90
11540;DHT22;5826;54.756;9.192;2023-04-15T01:26:44;8.90;99.90
11540;DHT22;5826;54.756;9.192;2023-04-15T01:29:11;8.90;99.90
11540;DHT22;5826;54.756;9.192;2023-04-15T01:31:36;8.90;99.90
11540;DHT22;5826;54.756;9.192;2023-04-15T01:34:02;8.90;99.90
11540;DHT22;5826;54.756;9.192;2023-04-15T01:36:27;8.90;99.90
11540;DHT22;5826;54.756;9.192;2023-04-15T01:38:55;8.80;99.90
11540;DHT22;5826;54.756;9.192;2023-04-15T01:41:27;8.90;99.90
11540;DHT22;5826;54.756;9.192;2023-04-15T01:43:54;8.80;99.90
11540;DHT22;5826;54.756;9.192;2023-04-15T01:46:19;8.80;99.90
11540;DHT22;5826;54.756;9.192;2023-04-15T01:48:45;8.80;99.90
11540;DHT22;5826;54.756;9.192;2023-04-15T01:51:11;8.80;99.90
11540;DHT22;5826;54.756;9.192;2023-04-15T01:53:37;8.80;99.90
11540;DHT22;5826;54.756;9.192;2023-04-15T01:56:02;8.80;99.90
11540;DHT22;5826;54.756;9.192;2023-04-15T01:58:28;8.80;99.90
11540;DHT22;5826;54.756;9.192;2023-04-15T02:00:54;8.80;99.90
11540;DHT22;5826;54.756;9.192;2023-04-15T02:03:20;8.80;99.90
11540;DHT22;5826;54.756;9.192;2023-04-15T02:05:45;8.80;99.90
11540;DHT22;5826;54.756;9.192;2023-04-15T02:08:11;8.70;99.90
11540;DHT22;5826;54.756;9.192;2023-04-15T02:10:37;8.80;99.90
11540;DHT22;5826;54.756;9.192;2023-04-15T02:13:03;8.80;99.90
11540;DHT22;5826;54.756;9.192;2023-04-15T02:15:29;8.70;99.90
11540;DHT22;5826;54.756;9.192;2023-04-15T02:17:54;8.70;99.90
11540;DHT22;5826;54.756;9.192;2023-04-15T02:20:20;8.70;99.90
11540;DHT22;5826;54.756;9.192;2023-04-15T02:22:46;8.70;99.90
11540;DHT22;5826;54.756;9.192;2023-04-15T02:25:12;8.70;99.90
11540;DHT22;5826;54.756;9.192;2023-04-15T02:27:38;8.60;99.90
11540;DHT22;5826;54.756;9.192;2023-04-15T02:30:04;8.70;99.90
11540;DHT22;5826;54.756;9.192;2023-04-15T02:32:30;8.70;99.90
11540;DHT22;5826;54.756;9.192;2023-04-15T02:34:55;8.80;99.90
11540;DHT22;5826;54.756;9.192;2023-04-15T02:37:21;8.70;99.90
11540;DHT22;5826;54.756;9.192;2023-04-15T02:39:47;8.70;99.90
11540;DHT22;5826;54.756;9.192;2023-04-15T02:42:12;8.70;99.90
11540;DHT22;5826;54.756;9.192;2023-04-15T02:44:38;8.70;99.90
11540;DHT22;5826;54.756;9.192;2023-04-15T02:47:03;8.70;99.90
11540;DHT22;5826;54.756;9.192;2023-04-15T02:49:31;8.70;99.90
11540;DHT22;5826;54.756;9.192;2023-04-15T02:51:57;8.70;99.90
11540;DHT22;5826;54.756;9.192;2023-04-15T02:54:25;8.80;99.90
11540;DHT22;5826;54.756;9.192;2023-04-15T02:56:53;8.70;99.90
11540;DHT22;5826;54.756;9.192;2023-04-15T02:59:20;8.70;99.90
11540;DHT22;5826;54.756;9.192;2023-04-15T03:01:46;8.70;99.90
11540;DHT22;5826;54.756;9.192;2023-04-15T03:04:11;8.70;99.90
11540;DHT22;5826;54.756;9.192;2023-04-15T03:06:38;8.70;99.90
11540;DHT22;5826;54.756;9.192;2023-04-15T03:09:04;8.60;99.90
11540;DHT22;5826;54.756;9.192;2023-04-15T03:11:29;8.60;99.90
11540;DHT22;5826;54.756;9.192;2023-04-15T03:13:56;8.60;99.90
11540;DHT22;5826;54.756;9.192;2023-04-15T03:16:21;8.60;99.90
11540;DHT22;5826;54.756;9.192;2023-04-15T03:18:47;8.60;99.90
11540;DHT22;5826;54.756;9.192;2023-04-15T03:21:12;8.70;99.90
11540;DHT22;5826;54.756;9.192;2023-04-15T03:23:37;8.60;99.90
11540;DHT22;5826;54.756;9.192;2023-04-15T03:26:03;8.70;99.90
11540;DHT22;5826;54.756;9.192;2023-04-15T03:28:29;8.70;99.90
11540;DHT22;5826;54.756;9.192;2023-04-15T03:30:55;8.60;99.90
11540;DHT22;5826;54.756;9.192;2023-04-15T03:33:21;8.60;99.90
11540;DHT22;5826;54.756;9.192;2023-04-15T03:35:46;8.60;99.90
11540;DHT22;5826;54.756;9.192;2023-04-15T03:38:12;8.70;99.90
11540;DHT22;5826;54.756;9.192;2023-04-15T03:40:40;8.60;99.90
11540;DHT22;5826;54.756;9.192;2023-04-15T03:43:06;8.60;99.90
11540;DHT22;5826;54.756;9.192;2023-04-15T03:45:32;8.60;99.90
11540;DHT22;5826;54.756;9.192;2023-04-15T03:47:57;8.60;99.90
11540;DHT22;5826;54.756;9.192;2023-04-15T03:50:23;8.60;99.90
11540;DHT22;5826;54.756;9.192;2023-04-15T03:52:48;8.60;99.90
11540;DHT22;5826;54.756;9.192;2023-04-15T03:55:14;8.70;99.90
11540;DHT22;5826;54.756;9.192;2023-04-15T03:57:40;8.70;99.90
11540;DHT22;5826;54.756;9.192;2023-04-15T04:00:06;8.70;99.90
11540;DHT22;5826;54.756;9.192;2023-04-15T04:02:33;8.70;99.90
11540;DHT22;5826;54.756;9.192;2023-04-15T04:04:59;8.70;99.90
11540;DHT22;5826;54.756;9.192;2023-04-15T04:07:24;8.70;99.90
11540;DHT22;5826;54.756;9.192;2023-04-15T04:09:50;8.70;99.90
11540;DHT22;5826;54.756;9.192;2023-04-15T04:12:16;8.70;99.90
11540;DHT22;5826;54.756;9.192;2023-04-15T04:14:41;8.60;99.90
11540;DHT22;5826;54.756;9.192;2023-04-15T04:17:07;8.60;99.90
11540;DHT22;5826;54.756;9.192;2023-04-15T04:19:32;8.60;99.90
11540;DHT22;5826;54.756;9.192;2023-04-15T04:21:58;8.60;99.90
11540;DHT22;5826;54.756;9.192;2023-04-15T04:24:24;8.60;99.90
11540;DHT22;5826;54.756;9.192;2023-04-15T04:26:50;8.60;99.90
11540;DHT22;5826;54.756;9.192;2023-04-15T04:29:15;8.60;99.90
11540;DHT22;5826;54.756;9.192;2023-04-15T04:31:41;8.50;99.90
11540;DHT22;5826;54.756;9.192;2023-04-15T04:34:06;8.60;99.90
11540;DHT22;5826;54.756;9.192;2023-04-15T04:36:32;8.50;99.90
11540;DHT22;5826;54.756;9.192;2023-04-15T04:38:57;8.60;99.90
11540;DHT22;5826;54.756;9.192;2023-04-15T04:41:23;8.50;99.90
11540;DHT22;5826;54.756;9.192;2023-04-15T04:43:48;8.60;99.90
11540;DHT22;5826;54.756;9.192;2023-04-15T04:46:14;8.50;99.90
11540;DHT22;5826;54.756;9.192;2023-04-15T04:48:39;8.50;99.90
11540;DHT22;5826;54.756;9.192;2023-04-15T04:51:05;8.60;99.90
11540;DHT22;5826;54.756;9.192;2023-04-15T04:53:32;8.60;99.90
11540;DHT22;5826;54.756;9.192;2023-04-15T04:55:57;8.60;99.90
11540;DHT22;5826;54.756;9.192;2023-04-15T04:58:23;8.60;99.90
11540;DHT22;5826;54.756;9.192;2023-04-15T05:00:48;8.70;99.90
11540;DHT22;5826;54.756;9.192;2023-04-15T05:03:14;8.70;99.90
11540;DHT22;5826;54.756;9.192;2023-04-15T05:05:39;8.60;99.90
11540;DHT22;5826;54.756;9.192;2023-04-15T05:08:06;8.60;99.90
11540;DHT22;5826;54.756;9.192;2023-04-15T05:10:31;8.60;99.90
11540;DHT22;5826;54.756;9.192;2023-04-15T05:12:57;8.60;99.90
11540;DHT22;5826;54.756;9.192;2023-04-15T05:15:23;8.60;99.90
11540;DHT22;5826;54.756;9.192;2023-04-15T05:17:48;8.70;99.90
11540;DHT22;5826;54.756;9.192;2023-04-15T05:20:14;8.70;99.90
11540;DHT22;5826;54.756;9.192;2023-04-15T05:22:40;8.70;99.90
11540;DHT22;5826;54.756;9.192;2023-04-15T05:25:05;8.70;99.90
11540;DHT22;5826;54.756;9.192;2023-04-15T05:27:31;8.70;99.90
11540;DHT22;5826;54.756;9.192;2023-04-15T05:29:57;8.70;99.90
11540;DHT22;5826;54.756;9.192;2023-04-15T05:32:22;8.70;99.90
11540;DHT22;5826;54.756;9.192;2023-04-15T05:34:48;8.70;99.90
11540;DHT22;5826;54.756;9.192;2023-04-15T05:37:13;8.70;99.90
11540;DHT22;5826;54.756;9.192;2023-04-15T05:39:39;8.70;99.90
11540;DHT22;5826;54.756;9.192;2023-04-15T05:42:04;8.70;99.90
11540;DHT22;5826;54.756;9.192;2023-04-15T05:44:30;8.70;99.90
11540;DHT22;5826;54.756;9.192;2023-04-15T05:46:56;8.80;99.90
11540;DHT22;5826;54.756;9.192;2023-04-15T05:49:22;8.80;99.90
11540;DHT22;5826;54.756;9.192;2023-04-15T05:51:47;8.80;99.90
11540;DHT22;5826;54.756;9.192;2023-04-15T05:54:13;8.70;99.90
11540;DHT22;5826;54.756;9.192;2023-04-15T05:56:38;8.70;99.90
11540;DHT22;5826;54.756;9.192;2023-04-15T05:59:04;8.80;99.90
11540;DHT22;5826;54.756;9.192;2023-04-15T06:01:29;8.80;99.90
11540;DHT22;5826;54.756;9.192;2023-04-15T06:03:55;8.80;99.90
11540;DHT22;5826;54.756;9.192;2023-04-15T06:06:21;8.70;99.90
11540;DHT22;5826;54.756;9.192;2023-04-15T06:08:46;8.80;99.90
11540;DHT22;5826;54.756;9.192;2023-04-15T06:11:12;8.80;99.90
11540;DHT22;5826;54.756;9.192;2023-04-15T06:13:37;8.80;99.90
11540;DHT22;5826;54.756;9.192;2023-04-15T06:16:03;8.90;99.90
11540;DHT22;5826;54.756;9.192;2023-04-15T06:18:28;8.80;99.90
11540;DHT22;5826;54.756;9.192;2023-04-15T06:20:54;8.80;99.90
11540;DHT22;5826;54.756;9.192;2023-04-15T06:23:20;8.80;99.90
11540;DHT22;5826;54.756;9.192;2023-04-15T06:25:45;8.80;99.90
11540;DHT22;5826;54.756;9.192;2023-04-15T06:28:11;8.80;99.90
11540;DHT22;5826;54.756;9.192;2023-04-15T06:30:36;8.80;99.90
11540;DHT22;5826;54.756;9.192;2023-04-15T06:33:03;8.80;99.90
11540;DHT22;5826;54.756;9.192;2023-04-15T06:35:30;8.80;99.90
11540;DHT22;5826;54.756;9.192;2023-04-15T06:37:56;8.80;99.90
11540;DHT22;5826;54.756;9.192;2023-04-15T06:40:21;8.80;99.90
11540;DHT22;5826;54.756;9.192;2023-04-15T06:42:47;8.90;99.90
11540;DHT22;5826;54.756;9.192;2023-04-15T06:45:12;8.90;99.90
11540;DHT22;5826;54.756;9.192;2023-04-15T06:47:38;8.90;99.90
11540;DHT22;5826;54.756;9.192;2023-04-15T06:50:04;9.00;99.90
11540;DHT22;5826;54.756;9.192;2023-04-15T06:52:30;9.00;99.90
11540;DHT22;5826;54.756;9.192;2023-04-15T06:54:56;9.00;99.90
11540;DHT22;5826;54.756;9.192;2023-04-15T06:57:21;9.00;99.90
11540;DHT22;5826;54.756;9.192;2023-04-15T06:59:47;9.10;99.90
11540;DHT22;5826;54.756;9.192;2023-04-15T07:02:12;9.10;99.90
11540;DHT22;5826;54.756;9.192;2023-04-15T07:04:38;9.10;99.90
11540;DHT22;5826;54.756;9.192;2023-04-15T07:07:04;9.10;99.90
11540;DHT22;5826;54.756;9.192;2023-04-15T07:09:30;9.10;99.90
11540;DHT22;5826;54.756;9.192;2023-04-15T07:11:56;9.10;99.90
11540;DHT22;5826;54.756;9.192;2023-04-15T07:14:22;9.10;99.90
11540;DHT22;5826;54.756;9.192;2023-04-15T07:16:47;9.20;99.90
11540;DHT22;5826;54.756;9.192;2023-04-15T07:19:13;9.20;99.90
11540;DHT22;5826;54.756;9.192;2023-04-15T07:21:38;9.20;99.90
11540;DHT22;5826;54.756;9.192;2023-04-15T07:24:04;9.20;99.90
11540;DHT22;5826;54.756;9.192;2023-04-15T07:26:30;9.20;99.90
11540;DHT22;5826;54.756;9.192;2023-04-15T07:28:55;9.20;99.90
11540;DHT22;5826;54.756;9.192;2023-04-15T07:31:21;9.20;99.90
11540;DHT22;5826;54.756;9.192;2023-04-15T07:33:46;9.30;99.90
11540;DHT22;5826;54.756;9.192;2023-04-15T07:36:12;9.30;99.90
11540;DHT22;5826;54.756;9.192;2023-04-15T07:38:38;9.30;99.90
11540;DHT22;5826;54.756;9.192;2023-04-15T07:41:04;9.30;99.90
11540;DHT22;5826;54.756;9.192;2023-04-15T07:43:30;9.30;99.90
11540;DHT22;5826;54.756;9.192;2023-04-15T07:45:55;9.30;99.90
11540;DHT22;5826;54.756;9.192;2023-04-15T07:48:21;9.30;99.90
11540;DHT22;5826;54.756;9.192;2023-04-15T07:50:46;9.30;99.90
11540;DHT22;5826;54.756;9.192;2023-04-15T07:53:12;9.40;99.90
11540;DHT22;5826;54.756;9.192;2023-04-15T07:55:38;9.40;99.90
11540;DHT22;5826;54.756;9.192;2023-04-15T07:58:03;9.50;99.90
11540;DHT22;5826;54.756;9.192;2023-04-15T08:00:29;9.50;99.90
11540;DHT22;5826;54.756;9.192;2023-04-15T08:02:55;9.50;99.90
11540;DHT22;5826;54.756;9.192;2023-04-15T08:05:21;9.60;99.90
11540;DHT22;5826;54.756;9.192;2023-04-15T08:07:47;9.60;99.90
11540;DHT22;5826;54.756;9.192;2023-04-15T08:10:13;9.60;99.90
11540;DHT22;5826;54.756;9.192;2023-04-15T08:12:39;9.60;99.90
11540;DHT22;5826;54.756;9.192;2023-04-15T08:15:05;9.70;99.90
11540;DHT22;5826;54.756;9.192;2023-04-15T08:17:32;9.70;99.90
11540;DHT22;5826;54.756;9.192;2023-04-15T08:19:58;9.80;99.90
11540;DHT22;5826;54.756;9.192;2023-04-15T08:22:23;9.80;99.90
11540;DHT22;5826;54.756;9.192;2023-04-15T08:24:49;9.90;99.90
11540;DHT22;5826;54.756;9.192;2023-04-15T08:27:15;9.80;99.90
11540;DHT22;5826;54.756;9.192;2023-04-15T08:29:41;9.90;99.90
11540;DHT22;5826;54.756;9.192;2023-04-15T08:32:07;9.90;99.90
11540;DHT22;5826;54.756;9.192;2023-04-15T08:34:34;9.90;99.90
11540;DHT22;5826;54.756;9.192;2023-04-15T08:36:59;10.00;99.90
11540;DHT22;5826;54.756;9.192;2023-04-15T08:39:25;10.00;99.90
11540;DHT22;5826;54.756;9.192;2023-04-15T08:41:58;10.10;99.90
11540;DHT22;5826;54.756;9.192;2023-04-15T08:44:25;10.10;99.90
11540;DHT22;5826;54.756;9.192;2023-04-15T08:46:54;10.20;99.90
11540;DHT22;5826;54.756;9.192;2023-04-15T08:49:21;10.20;99.90
11540;DHT22;5826;54.756;9.192;2023-04-15T08:51:51;10.30;99.90
11540;DHT22;5826;54.756;9.192;2023-04-15T08:54:17;10.30;99.90
11540;DHT22;5826;54.756;9.192;2023-04-15T08:56:43;10.30;99.90
11540;DHT22;5826;54.756;9.192;2023-04-15T08:59:09;10.30;99.90
11540;DHT22;5826;54.756;9.192;2023-04-15T09:01:36;10.30;99.90
11540;DHT22;5826;54.756;9.192;2023-04-15T09:04:02;10.30;99.90
11540;DHT22;5826;54.756;9.192;2023-04-15T09:06:30;10.40;99.90
11540;DHT22;5826;54.756;9.192;2023-04-15T09:08:56;10.40;99.90
11540;DHT22;5826;54.756;9.192;2023-04-15T09:11:21;10.40;99.90
11540;DHT22;5826;54.756;9.192;2023-04-15T09:13:48;10.50;99.90
11540;DHT22;5826;54.756;9.192;2023-04-15T09:16:13;10.50;99.90
11540;DHT22;5826;54.756;9.192;2023-04-15T09:18:39;10.60;99.90
11540;DHT22;5826;54.756;9.192;2023-04-15T09:21:10;10.50;99.90
11540;DHT22;5826;54.756;9.192;2023-04-15T09:23:40;10.50;99.90
11540;DHT22;5826;54.756;9.192;2023-04-15T09:26:06;10.50;99.90
11540;DHT22;5826;54.756;9.192;2023-04-15T09:28:32;10.40;99.90
11540;DHT22;5826;54.756;9.192;2023-04-15T09:31:00;10.40;99.90
11540;DHT22;5826;54.756;9.192;2023-04-15T09:33:27;10.30;99.90
11540;DHT22;5826;54.756;9.192;2023-04-15T09:35:58;10.30;99.90
11540;DHT22;5826;54.756;9.192;2023-04-15T09:38:24;10.30;99.90
11540;DHT22;5826;54.756;9.192;2023-04-15T09:40:50;10.30;99.90
11540;DHT22;5826;54.756;9.192;2023-04-15T09:43:16;10.30;99.90
11540;DHT22;5826;54.756;9.192;2023-04-15T09:45:52;10.30;99.90
11540;DHT22;5826;54.756;9.192;2023-04-15T09:48:22;10.30;99.90
11540;DHT22;5826;54.756;9.192;2023-04-15T09:50:49;10.30;99.90
11540;DHT22;5826;54.756;9.192;2023-04-15T09:53:18;10.30;99.90
11540;DHT22;5826;54.756;9.192;2023-04-15T09:55:50;10.40;99.90
11540;DHT22;5826;54.756;9.192;2023-04-15T09:58:25;10.40;99.90
11540;DHT22;5826;54.756;9.192;2023-04-15T10:00:52;10.40;99.90
11540;DHT22;5826;54.756;9.192;2023-04-15T10:03:29;10.40;99.90
11540;DHT22;5826;54.756;9.192;2023-04-15T10:05:56;10.40;99.90
11540;DHT22;5826;54.756;9.192;2023-04-15T10:08:25;10.60;99.90
11540;DHT22;5826;54.756;9.192;2023-04-15T10:10:52;10.60;99.90
11540;DHT22;5826;54.756;9.192;2023-04-15T10:13:21;10.70;99.90
11540;DHT22;5826;54.756;9.192;2023-04-15T10:15:50;10.70;99.90
11540;DHT22;5826;54.756;9.192;2023-04-15T10:18:19;10.80;99.90
11540;DHT22;5826;54.756;9.192;2023-04-15T10:20:47;10.80;99.90
11540;DHT22;5826;54.756;9.192;2023-04-15T10:23:14;10.80;99.90
11540;DHT22;5826;54.756;9.192;2023-04-15T10:25:39;10.80;99.90
11540;DHT22;5826;54.756;9.192;2023-04-15T10:28:06;10.80;99.90
11540;DHT22;5826;54.756;9.192;2023-04-15T10:30:33;10.80;99.90
11540;DHT22;5826;54.756;9.192;2023-04-15T10:33:00;10.90;99.90
11540;DHT22;5826;54.756;9.192;2023-04-15T10:35:28;10.90;99.90
11540;DHT22;5826;54.756;9.192;2023-04-15T10:37:54;10.90;99.90
11540;DHT22;5826;54.756;9.192;2023-04-15T10:40:31;11.10;99.90
11540;DHT22;5826;54.756;9.192;2023-04-15T10:42:59;11.10;99.90
11540;DHT22;5826;54.756;9.192;2023-04-15T10:45:33;11.20;99.90
11540;DHT22;5826;54.756;9.192;2023-04-15T10:48:02;11.20;99.90
11540;DHT22;5826;54.756;9.192;2023-04-15T10:50:31;11.30;99.90
11540;DHT22;5826;54.756;9.192;2023-04-15T10:52:57;11.30;99.90
11540;DHT22;5826;54.756;9.192;2023-04-15T10:55:25;11.40;99.90
11540;DHT22;5826;54.756;9.192;2023-04-15T10:57:52;11.50;99.90
11540;DHT22;5826;54.756;9.192;2023-04-15T11:00:19;11.50;99.90
11540;DHT22;5826;54.756;9.192;2023-04-15T11:05:18;11.90;99.90
11540;DHT22;5826;54.756;9.192;2023-04-15T11:07:53;12.20;99.90
11540;DHT22;5826;54.756;9.192;2023-04-15T11:13:01;12.60;99.90
11540;DHT22;5826;54.756;9.192;2023-04-15T11:15:38;12.80;99.90
11540;DHT22;5826;54.756;9.192;2023-04-15T11:18:21;13.00;99.90
11540;DHT22;5826;54.756;9.192;2023-04-15T11:20:49;13.20;99.90
11540;DHT22;5826;54.756;9.192;2023-04-15T11:23:18;13.30;99.90
11540;DHT22;5826;54.756;9.192;2023-04-15T11:25:44;13.40;99.90
11540;DHT22;5826;54.756;9.192;2023-04-15T11:28:11;13.50;99.90
11540;DHT22;5826;54.756;9.192;2023-04-15T11:30:39;13.80;99.90
11540;DHT22;5826;54.756;9.192;2023-04-15T11:33:06;14.00;99.90
11540;DHT22;5826;54.756;9.192;2023-04-15T11:35:33;14.20;99.90
11540;DHT22;5826;54.756;9.192;2023-04-15T11:38:04;14.40;99.90
11540;DHT22;5826;54.756;9.192;2023-04-15T11:40:33;14.50;99.90
11540;DHT22;5826;54.756;9.192;2023-04-15T11:45:48;14.90;99.90
11540;DHT22;5826;54.756;9.192;2023-04-15T11:48:16;14.80;99.90
11540;DHT22;5826;54.756;9.192;2023-04-15T11:50:41;14.70;99.90
11540;DHT22;5826;54.756;9.192;2023-04-15T11:53:10;14.70;99.90
11540;DHT22;5826;54.756;9.192;2023-04-15T11:55:47;14.80;99.90
11540;DHT22;5826;54.756;9.192;2023-04-15T11:58:19;14.90;99.90
11540;DHT22;5826;54.756;9.192;2023-04-15T12:00:49;15.20;99.90
11540;DHT22;5826;54.756;9.192;2023-04-15T12:03:17;15.40;99.90
11540;DHT22;5826;54.756;9.192;2023-04-15T12:06:13;15.60;99.90
11540;DHT22;5826;54.756;9.192;2023-04-15T12:13:54;15.80;99.90
11540;DHT22;5826;54.756;9.192;2023-04-15T12:16:21;15.70;99.90
11540;DHT22;5826;54.756;9.192;2023-04-15T12:18:51;15.60;99.90
11540;DHT22;5826;54.756;9.192;2023-04-15T12:21:21;15.50;99.90
11540;DHT22;5826;54.756;9.192;2023-04-15T12:23:48;15.40;99.90
11540;DHT22;5826;54.756;9.192;2023-04-15T12:26:15;15.50;99.90
11540;DHT22;5826;54.756;9.192;2023-04-15T12:28:41;15.50;99.90
11540;DHT22;5826;54.756;9.192;2023-04-15T12:31:08;15.40;99.90
11540;DHT22;5826;54.756;9.192;2023-04-15T12:33:34;15.30;99.90
11540;DHT22;5826;54.756;9.192;2023-04-15T12:35:59;15.40;99.90
11540;DHT22;5826;54.756;9.192;2023-04-15T12:38:25;15.50;99.90
11540;DHT22;5826;54.756;9.192;2023-04-15T12:40:51;15.50;99.90
11540;DHT22;5826;54.756;9.192;2023-04-15T12:43:16;15.60;99.90
11540;DHT22;5826;54.756;9.192;2023-04-15T12:45:42;15.80;99.90
11540;DHT22;5826;54.756;9.192;2023-04-15T12:48:07;15.90;99.90
11540;DHT22;5826;54.756;9.192;2023-04-15T12:50:34;16.00;99.90
11540;DHT22;5826;54.756;9.192;2023-04-15T12:53:00;16.30;99.90
11540;DHT22;5826;54.756;9.192;2023-04-15T12:55:25;16.50;99.90
11540;DHT22;5826;54.756;9.192;2023-04-15T12:57:51;16.70;99.90
11540;DHT22;5826;54.756;9.192;2023-04-15T13:00:17;16.70;99.90
11540;DHT22;5826;54.756;9.192;2023-04-15T13:02:43;16.90;99.90
11540;DHT22;5826;54.756;9.192;2023-04-15T13:05:09;17.00;99.90
11540;DHT22;5826;54.756;9.192;2023-04-15T13:07:34;17.10;99.90
11540;DHT22;5826;54.756;9.192;2023-04-15T13:10:00;17.00;99.90
11540;DHT22;5826;54.756;9.192;2023-04-15T13:12:26;16.90;99.90
11540;DHT22;5826;54.756;9.192;2023-04-15T13:14:51;16.90;99.90
11540;DHT22;5826;54.756;9.192;2023-04-15T13:17:17;17.00;99.90
11540;DHT22;5826;54.756;9.192;2023-04-15T13:19:44;17.20;99.90
11540;DHT22;5826;54.756;9.192;2023-04-15T13:22:10;17.20;99.90
11540;DHT22;5826;54.756;9.192;2023-04-15T13:24:37;17.00;99.90
11540;DHT22;5826;54.756;9.192;2023-04-15T13:27:03;16.80;99.90
11540;DHT22;5826;54.756;9.192;2023-04-15T13:29:29;16.50;99.90
11540;DHT22;5826;54.756;9.192;2023-04-15T13:31:55;16.10;99.90
11540;DHT22;5826;54.756;9.192;2023-04-15T13:34:21;15.70;99.90
11540;DHT22;5826;54.756;9.192;2023-04-15T13:36:46;15.40;99.90
11540;DHT22;5826;54.756;9.192;2023-04-15T13:39:12;15.10;99.90
11540;DHT22;5826;54.756;9.192;2023-04-15T13:41:38;14.90;99.90
11540;DHT22;5826;54.756;9.192;2023-04-15T13:44:04;14.70;99.90
11540;DHT22;5826;54.756;9.192;2023-04-15T13:46:30;14.50;99.90
11540;DHT22;5826;54.756;9.192;2023-04-15T13:48:55;14.30;99.90
11540;DHT22;5826;54.756;9.192;2023-04-15T13:51:21;14.20;99.90
11540;DHT22;5826;54.756;9.192;2023-04-15T13:53:46;14.00;99.90
11540;DHT22;5826;54.756;9.192;2023-04-15T13:56:12;13.90;99.90
11540;DHT22;5826;54.756;9.192;2023-04-15T13:58:38;13.70;99.90
11540;DHT22;5826;54.756;9.192;2023-04-15T14:01:05;13.60;99.90
11540;DHT22;5826;54.756;9.192;2023-04-15T14:03:30;13.50;99.90
11540;DHT22;5826;54.756;9.192;2023-04-15T14:05:56;13.50;99.90
11540;DHT22;5826;54.756;9.192;2023-04-15T14:08:22;13.40;99.90
11540;DHT22;5826;54.756;9.192;2023-04-15T14:10:48;13.40;99.90
11540;DHT22;5826;54.756;9.192;2023-04-15T14:13:14;13.50;99.90
11540;DHT22;5826;54.756;9.192;2023-04-15T14:15:40;13.50;99.90
11540;DHT22;5826;54.756;9.192;2023-04-15T14:18:06;13.60;99.90
11540;DHT22;5826;54.756;9.192;2023-04-15T14:20:32;13.70;99.90
11540;DHT22;5826;54.756;9.192;2023-04-15T14:22:57;13.80;99.90
11540;DHT22;5826;54.756;9.192;2023-04-15T14:25:23;13.80;99.90
11540;DHT22;5826;54.756;9.192;2023-04-15T14:27:49;13.80;99.90
11540;DHT22;5826;54.756;9.192;2023-04-15T14:30:14;13.80;99.90
11540;DHT22;5826;54.756;9.192;2023-04-15T14:32:40;13.80;99.90
11540;DHT22;5826;54.756;9.192;2023-04-15T14:35:06;13.80;99.90
11540;DHT22;5826;54.756;9.192;2023-04-15T14:37:31;13.80;99.90
11540;DHT22;5826;54.756;9.192;2023-04-15T14:39:57;13.90;99.90
11540;DHT22;5826;54.756;9.192;2023-04-15T14:42:23;14.10;99.90
11540;DHT22;5826;54.756;9.192;2023-04-15T14:44:48;14.50;99.90
11540;DHT22;5826;54.756;9.192;2023-04-15T14:47:14;15.00;99.90
11540;DHT22;5826;54.756;9.192;2023-04-15T14:49:40;15.60;99.90
11540;DHT22;5826;54.756;9.192;2023-04-15T14:52:06;16.00;99.90
11540;DHT22;5826;54.756;9.192;2023-04-15T14:54:31;16.30;99.90
11540;DHT22;5826;54.756;9.192;2023-04-15T14:56:56;16.60;99.90
11540;DHT22;5826;54.756;9.192;2023-04-15T14:59:22;16.70;99.90
11540;DHT22;5826;54.756;9.192;2023-04-15T15:01:47;16.80;99.90
11540;DHT22;5826;54.756;9.192;2023-04-15T15:04:13;17.30;99.90
11540;DHT22;5826;54.756;9.192;2023-04-15T15:06:39;18.30;99.90
11540;DHT22;5826;54.756;9.192;2023-04-15T15:09:04;19.30;99.90
11540;DHT22;5826;54.756;9.192;2023-04-15T15:11:30;20.30;99.90
11540;DHT22;5826;54.756;9.192;2023-04-15T15:13:56;21.30;99.90
11540;DHT22;5826;54.756;9.192;2023-04-15T15:16:22;22.10;99.90
11540;DHT22;5826;54.756;9.192;2023-04-15T15:18:49;22.70;99.90
11540;DHT22;5826;54.756;9.192;2023-04-15T15:21:16;22.90;99.90
11540;DHT22;5826;54.756;9.192;2023-04-15T15:23:41;22.90;99.90
11540;DHT22;5826;54.756;9.192;2023-04-15T15:26:07;22.80;99.90
11540;DHT22;5826;54.756;9.192;2023-04-15T15:28:33;22.60;99.90
11540;DHT22;5826;54.756;9.192;2023-04-15T15:30:59;22.10;99.90
11540;DHT22;5826;54.756;9.192;2023-04-15T15:33:24;21.60;99.90
11540;DHT22;5826;54.756;9.192;2023-04-15T15:35:50;21.10;99.90
11540;DHT22;5826;54.756;9.192;2023-04-15T15:38:16;20.60;99.90
11540;DHT22;5826;54.756;9.192;2023-04-15T15:40:41;20.10;99.90
11540;DHT22;5826;54.756;9.192;2023-04-15T15:43:07;19.40;99.90
11540;DHT22;5826;54.756;9.192;2023-04-15T15:45:34;18.80;99.90
11540;DHT22;5826;54.756;9.192;2023-04-15T15:48:00;18.30;99.90
11540;DHT22;5826;54.756;9.192;2023-04-15T15:50:26;17.80;99.90
11540;DHT22;5826;54.756;9.192;2023-04-15T15:52:51;17.40;99.90
11540;DHT22;5826;54.756;9.192;2023-04-15T15:55:17;17.00;99.90
11540;DHT22;5826;54.756;9.192;2023-04-15T15:57:42;16.60;99.90
11540;DHT22;5826;54.756;9.192;2023-04-15T16:00:08;16.40;99.90
11540;DHT22;5826;54.756;9.192;2023-04-15T16:02:35;16.20;99.90